Time;durP1;ratioP1;P1;durP2;ratioP2;P2;SDS_P1;SDS_P2;PMS_P1;PMS_P2;Temp;Humidity;BMP_temperature;BMP_pressure;BME280_temperature;BME280_humidity;BME280_pressure;Samples;Min_cycle;Max_cycle;Signal;HPM_P1;HPM_P2
2022/10/29 00:01:00;;;;;;;10.65;5.75;;;18.10;87.00;;;;;;5052498;28;20036;-73
2022/10/29 00:03:26;;;;;;;15.13;6.07;;;18.10;87.00;;;;;;5052215;28;20506;-73
2022/10/29 00:05:59;;;;;;;12.23;5.50;;;18.20;87.10;;;;;;5053773;28;20143;-73
2022/10/29 00:08:25;;;;;;;12.18;6.00;;;18.10;87.00;;;;;;5052379;28;20055;-73
2022/10/29 00:10:51;;;;;;;10.20;5.30;;;18.10;87.00;;;;;;5035618;28;20511;-73
2022/10/29 00:13:16;;;;;;;10.70;5.40;;;18.20;87.10;;;;;;5052074;28;20412;-73
2022/10/29 00:15:42;;;;;;;12.10;5.15;;;18.20;87.10;;;;;;5052320;28;20375;-74
2022/10/29 00:18:07;;;;;;;11.30;5.78;;;18.10;87.00;;;;;;5053471;28;20033;-74
2022/10/29 00:20:33;;;;;;;11.45;5.35;;;18.10;87.00;;;;;;5053391;28;20017;-73
2022/10/29 00:22:59;;;;;;;9.00;4.85;;;18.20;87.10;;;;;;5053260;28;20037;-73
2022/10/29 00:25:24;;;;;;;8.82;5.40;;;18.20;87.10;;;;;;5044758;28;20455;-73
2022/10/29 00:27:50;;;;;;;9.52;5.07;;;18.20;87.10;;;;;;5032031;28;20113;-73
2022/10/29 00:30:15;;;;;;;8.32;4.90;;;18.20;87.10;;;;;;5032034;28;20120;-73
2022/10/29 00:32:41;;;;;;;9.65;5.03;;;18.20;87.10;;;;;;5031996;28;20028;-73
2022/10/29 00:35:07;;;;;;;9.63;4.60;;;18.20;87.20;;;;;;5032091;28;20029;-73
2022/10/29 00:37:34;;;;;;;10.10;5.18;;;18.20;87.10;;;;;;5031836;28;20022;-73
2022/10/29 00:39:59;;;;;;;9.60;5.10;;;18.20;87.10;;;;;;5031969;28;20570;-73
2022/10/29 00:42:25;;;;;;;8.98;4.85;;;18.20;87.20;;;;;;5033056;28;20107;-73
2022/10/29 00:44:50;;;;;;;8.10;4.72;;;18.20;87.10;;;;;;5033056;28;20024;-73
2022/10/29 00:47:27;;;;;;;8.15;4.60;;;18.20;87.10;;;;;;5032877;28;20035;-73
2022/10/29 00:50:05;;;;;;;8.75;4.90;;;18.20;87.10;;;;;;5033243;28;20048;-73
2022/10/29 00:52:31;;;;;;;7.82;4.53;;;18.20;87.10;;;;;;5031788;28;20060;-73
2022/10/29 00:54:58;;;;;;;7.57;4.72;;;18.20;87.10;;;;;;5031394;28;20049;-73
2022/10/29 00:57:29;;;;;;;8.75;4.47;;;18.20;87.10;;;;;;5031594;28;20083;-73
2022/10/29 00:59:54;;;;;;;8.10;4.40;;;18.20;87.10;;;;;;5031621;28;20026;-74
2022/10/29 01:02:21;;;;;;;10.77;4.20;;;18.20;87.20;;;;;;5031621;28;20083;-73
2022/10/29 01:04:47;;;;;;;8.95;4.60;;;18.20;87.20;;;;;;5031591;28;20395;-73
2022/10/29 01:07:12;;;;;;;8.32;4.43;;;18.20;87.10;;;;;;5031319;28;20041;-73
2022/10/29 01:09:38;;;;;;;6.68;4.07;;;18.20;87.20;;;;;;5031127;28;20021;-73
2022/10/29 01:12:14;;;;;;;7.93;4.57;;;18.20;87.20;;;;;;5031598;28;20026;-73
2022/10/29 01:14:58;;;;;;;8.10;4.30;;;18.20;87.20;;;;;;5031608;28;20514;-73
2022/10/29 01:17:39;;;;;;;9.23;4.60;;;18.20;87.20;;;;;;5032483;28;20113;-73
2022/10/29 01:20:10;;;;;;;6.90;4.60;;;18.20;87.20;;;;;;5032751;28;20025;-74
2022/10/29 01:23:11;;;;;;;7.88;4.25;;;18.20;87.30;;;;;;5049201;28;20040;-74
2022/10/29 01:26:14;;;;;;;7.50;4.05;;;18.20;87.30;;;;;;5049827;28;20073;-74
2022/10/29 01:29:08;;;;;;;8.52;4.50;;;18.20;87.30;;;;;;5050273;28;20112;-74
2022/10/29 01:32:00;;;;;;;6.32;4.00;;;18.20;87.30;;;;;;5017946;28;20513;-74
2022/10/29 01:34:38;;;;;;;7.07;3.95;;;18.20;87.30;;;;;;5034284;28;20041;-74
2022/10/29 01:37:48;;;;;;;8.15;4.50;;;18.20;87.30;;;;;;5033646;28;20037;-73
2022/10/29 01:40:22;;;;;;;8.85;4.72;;;18.20;87.30;;;;;;5022657;28;20595;-73
2022/10/29 01:43:11;;;;;;;8.52;4.15;;;18.20;87.40;;;;;;5017596;28;20091;-73
2022/10/29 01:45:51;;;;;;;8.63;4.15;;;18.20;87.30;;;;;;5018247;28;20503;-73
2022/10/29 01:48:20;;;;;;;8.77;4.78;;;18.20;87.30;;;;;;5017359;28;20031;-73
2022/10/29 01:50:48;;;;;;;8.40;4.40;;;18.20;87.30;;;;;;5017330;28;20040;-73
2022/10/29 01:53:14;;;;;;;8.40;4.47;;;18.20;87.40;;;;;;5017286;28;20549;-73
2022/10/29 01:55:40;;;;;;;7.25;3.70;;;18.20;87.30;;;;;;5032994;28;20045;-73
2022/10/29 01:58:05;;;;;;;7.18;3.60;;;18.20;87.30;;;;;;5033363;28;20036;-73
2022/10/29 02:01:14;;;;;;;7.45;3.85;;;18.20;87.30;;;;;;5017176;28;20083;-73
2022/10/29 02:04:14;;;;;;;7.57;3.97;;;18.20;87.30;;;;;;5031201;28;20030;-73
2022/10/29 02:06:58;;;;;;;9.60;4.57;;;18.20;87.40;;;;;;5033328;28;20045;-73
2022/10/29 02:09:58;;;;;;;8.88;3.95;;;18.20;87.30;;;;;;5049751;28;20041;-73
2022/10/29 02:12:29;;;;;;;7.97;4.00;;;18.20;87.30;;;;;;5032792;28;20045;-73
2022/10/29 02:15:03;;;;;;;10.02;3.92;;;18.20;87.40;;;;;;5033454;28;20072;-73
2022/10/29 02:17:32;;;;;;;6.63;3.65;;;18.20;87.30;;;;;;5033229;28;20033;-74
2022/10/29 02:19:57;;;;;;;8.15;3.90;;;18.20;87.40;;;;;;5034429;28;20056;-74
2022/10/29 02:22:23;;;;;;;6.15;3.50;;;18.20;87.40;;;;;;5021737;28;20160;-73
2022/10/29 02:24:49;;;;;;;6.88;3.85;;;18.20;87.40;;;;;;5020521;28;20021;-73
2022/10/29 02:27:14;;;;;;;6.22;3.40;;;18.20;87.40;;;;;;5036861;28;20186;-73
2022/10/29 02:29:40;;;;;;;7.38;3.90;;;18.20;87.40;;;;;;5053175;28;20563;-73
2022/10/29 02:32:06;;;;;;;8.07;3.90;;;18.20;87.40;;;;;;5036458;28;20586;-73
2022/10/29 02:34:31;;;;;;;8.68;3.50;;;18.20;87.50;;;;;;5053289;28;20554;-73
2022/10/29 02:36:57;;;;;;;6.07;3.30;;;18.20;87.50;;;;;;5036364;28;20072;-73
2022/10/29 02:39:23;;;;;;;7.57;3.40;;;18.20;87.50;;;;;;5053024;28;20071;-73
2022/10/29 02:41:48;;;;;;;8.45;3.42;;;18.30;87.50;;;;;;5035745;28;20136;-73
2022/10/29 02:44:14;;;;;;;16.33;3.58;;;18.20;87.50;;;;;;5034210;28;20480;-73
2022/10/29 02:46:40;;;;;;;8.05;3.38;;;18.20;87.50;;;;;;5034050;28;20036;-73
2022/10/29 02:49:06;;;;;;;6.75;3.97;;;18.20;88.50;;;;;;5035228;28;20041;-73
2022/10/29 02:51:32;;;;;;;6.88;3.20;;;18.20;87.50;;;;;;5033965;28;20033;-73
2022/10/29 02:53:57;;;;;;;6.40;3.83;;;18.30;87.50;;;;;;5034030;28;20052;-73
2022/10/29 02:56:23;;;;;;;8.55;3.33;;;18.20;87.50;;;;;;5034818;28;20492;-73
2022/10/29 02:58:49;;;;;;;7.05;3.38;;;18.20;87.60;;;;;;5017536;28;20034;-73
2022/10/29 03:01:14;;;;;;;7.20;3.58;;;18.20;87.60;;;;;;5035171;28;20033;-73
2022/10/29 03:03:40;;;;;;;8.18;3.38;;;18.20;87.60;;;;;;5033541;28;20096;-73
2022/10/29 03:06:14;;;;;;;5.68;3.17;;;18.20;87.70;;;;;;5033636;28;20416;-73
2022/10/29 03:08:40;;;;;;;6.88;4.35;;;18.30;87.70;;;;;;5033612;28;20022;-73
2022/10/29 03:11:05;;;;;;;7.18;3.35;;;18.20;87.60;;;;;;5034957;28;20033;-73
2022/10/29 03:13:31;;;;;;;7.03;3.47;;;18.20;87.70;;;;;;5033702;28;20025;-73
2022/10/29 03:15:57;;;;;;;7.22;3.78;;;18.30;87.80;;;;;;5034605;28;20549;-73
2022/10/29 03:18:22;;;;;;;5.03;3.00;;;18.30;87.70;;;;;;5033766;28;20048;-73
2022/10/29 03:20:48;;;;;;;6.50;3.35;;;18.30;87.70;;;;;;5036079;28;20021;-73
2022/10/29 03:23:14;;;;;;;6.75;3.42;;;18.30;87.80;;;;;;5054651;28;20479;-73
2022/10/29 03:25:39;;;;;;;5.28;3.00;;;18.30;87.80;;;;;;5043974;28;20491;-73
2022/10/29 03:28:05;;;;;;;6.30;3.15;;;18.30;87.80;;;;;;5033139;28;20024;-73
2022/10/29 03:30:31;;;;;;;9.32;3.92;;;18.30;87.80;;;;;;5033418;28;20021;-73
2022/10/29 03:32:56;;;;;;;7.68;3.88;;;18.30;87.80;;;;;;5034239;28;20545;-73
2022/10/29 03:35:22;;;;;;;5.68;2.97;;;18.30;87.80;;;;;;5032856;28;20037;-73
2022/10/29 03:37:49;;;;;;;5.97;3.40;;;18.30;87.80;;;;;;5032911;28;20036;-73
2022/10/29 03:40:15;;;;;;;6.25;3.05;;;18.30;87.80;;;;;;5033120;28;20384;-73
2022/10/29 03:42:41;;;;;;;8.10;3.13;;;18.30;87.80;;;;;;5033025;28;20029;-73
2022/10/29 03:45:07;;;;;;;7.13;3.28;;;18.30;87.80;;;;;;5032878;28;20029;-74
2022/10/29 03:47:33;;;;;;;5.45;2.88;;;18.30;87.80;;;;;;5032729;28;20379;-74
2022/10/29 03:49:58;;;;;;;8.13;3.53;;;18.30;87.80;;;;;;5032711;28;20108;-74
2022/10/29 03:52:24;;;;;;;5.00;3.20;;;18.30;87.80;;;;;;5032905;28;20040;-74
2022/10/29 03:54:50;;;;;;;5.00;3.40;;;18.30;87.90;;;;;;5032511;28;20393;-74
2022/10/29 03:57:15;;;;;;;5.70;3.10;;;18.30;87.80;;;;;;5032605;28;20466;-74
2022/10/29 03:59:41;;;;;;;4.05;3.03;;;18.30;87.80;;;;;;5033857;28;20056;-73
2022/10/29 04:02:06;;;;;;;6.68;3.28;;;18.30;87.80;;;;;;5033844;28;20076;-73
2022/10/29 04:04:32;;;;;;;6.50;3.05;;;18.30;87.80;;;;;;5032591;28;20025;-73
2022/10/29 04:06:58;;;;;;;5.35;3.25;;;18.30;87.80;;;;;;5033677;28;20083;-73
2022/10/29 04:09:24;;;;;;;6.43;3.35;;;18.30;87.80;;;;;;5032425;28;20048;-73
2022/10/29 04:11:49;;;;;;;7.20;3.28;;;18.30;87.80;;;;;;5033823;28;20029;-74
2022/10/29 04:14:15;;;;;;;5.93;3.47;;;18.30;87.90;;;;;;5033661;28;20261;-74
2022/10/29 04:16:40;;;;;;;5.03;3.00;;;18.30;87.80;;;;;;5033423;28;20541;-74
2022/10/29 04:19:06;;;;;;;5.00;2.90;;;18.30;87.80;;;;;;5033356;28;20100;-74
2022/10/29 04:21:32;;;;;;;6.00;3.10;;;18.30;87.80;;;;;;5040123;28;20107;-74
2022/10/29 04:23:57;;;;;;;4.88;3.40;;;18.30;87.80;;;;;;5035701;28;20118;-74
2022/10/29 04:26:23;;;;;;;6.63;2.75;;;18.30;87.80;;;;;;5037017;28;20443;-74
2022/10/29 04:28:49;;;;;;;5.47;3.10;;;18.30;87.80;;;;;;5015538;28;20116;-73
2022/10/29 04:31:15;;;;;;;5.53;2.65;;;18.30;87.80;;;;;;5015717;28;20105;-73
2022/10/29 04:33:40;;;;;;;5.88;3.40;;;18.30;87.80;;;;;;5031725;28;20113;-74
2022/10/29 04:36:06;;;;;;;5.25;2.70;;;18.30;87.80;;;;;;5032171;28;20041;-73
2022/10/29 04:38:32;;;;;;;6.68;3.28;;;18.30;87.80;;;;;;5032126;28;20029;-73
2022/10/29 04:40:58;;;;;;;6.10;3.20;;;18.30;87.80;;;;;;5031941;28;20021;-73
2022/10/29 04:43:24;;;;;;;6.18;2.88;;;18.30;87.80;;;;;;5031579;28;20415;-73
2022/10/29 04:45:54;;;;;;;4.18;2.70;;;18.30;87.80;;;;;;5015340;28;20111;-73
2022/10/29 04:48:20;;;;;;;8.80;3.35;;;18.30;87.80;;;;;;5031514;28;20029;-73
2022/10/29 04:50:45;;;;;;;4.35;3.00;;;18.30;87.80;;;;;;5031794;28;20423;-73
2022/10/29 04:53:11;;;;;;;4.88;2.75;;;18.30;87.80;;;;;;5031729;28;20033;-73
2022/10/29 04:55:37;;;;;;;3.97;3.13;;;18.30;87.80;;;;;;5031338;28;20053;-73
2022/10/29 04:58:04;;;;;;;5.53;2.85;;;18.30;87.80;;;;;;5017884;28;20039;-73
2022/10/29 05:00:30;;;;;;;7.00;3.40;;;18.30;87.80;;;;;;5034997;28;20494;-73
2022/10/29 05:02:55;;;;;;;3.97;2.40;;;18.30;87.80;;;;;;5051291;28;20037;-73
2022/10/29 05:05:21;;;;;;;5.15;2.67;;;18.30;87.80;;;;;;5052920;28;20036;-73
2022/10/29 05:07:47;;;;;;;4.88;2.80;;;18.40;87.90;;;;;;5052727;28;20047;-73
2022/10/29 05:10:12;;;;;;;7.00;2.85;;;18.40;87.90;;;;;;5035040;28;20091;-73
2022/10/29 05:12:38;;;;;;;5.78;2.80;;;18.40;87.90;;;;;;5052842;28;20033;-73
2022/10/29 05:15:04;;;;;;;5.90;2.90;;;18.40;87.90;;;;;;5051564;28;20021;-73
2022/10/29 05:17:30;;;;;;;3.38;2.15;;;18.40;87.90;;;;;;5052496;28;20040;-73
2022/10/29 05:19:55;;;;;;;4.35;2.20;;;18.40;88.00;;;;;;5051405;28;20025;-73
2022/10/29 05:22:21;;;;;;;4.63;2.38;;;18.40;88.00;;;;;;5051454;28;20033;-73
2022/10/29 05:24:47;;;;;;;7.05;2.70;;;18.40;88.10;;;;;;5048003;28;20376;-73
2022/10/29 05:27:12;;;;;;;6.93;2.97;;;18.40;88.00;;;;;;5032855;28;20472;-73
2022/10/29 05:29:38;;;;;;;5.00;2.58;;;18.40;88.10;;;;;;5032754;28;20033;-73
2022/10/29 05:32:04;;;;;;;9.90;3.83;;;18.40;88.10;;;;;;5032528;28;20040;-74
2022/10/29 05:34:29;;;;;;;7.80;2.78;;;18.40;88.10;;;;;;5032666;28;20079;-73
2022/10/29 05:36:55;;;;;;;5.40;2.83;;;18.40;88.20;;;;;;5032459;28;20506;-73
2022/10/29 05:39:20;;;;;;;4.75;2.55;;;18.40;88.10;;;;;;5015104;28;20025;-73
2022/10/29 05:41:46;;;;;;;5.80;2.78;;;18.40;88.20;;;;;;5032755;28;20037;-73
2022/10/29 05:44:12;;;;;;;6.72;2.63;;;18.40;88.20;;;;;;5031414;28;20048;-74
2022/10/29 05:46:38;;;;;;;4.95;2.40;;;18.40;88.30;;;;;;5032558;28;20026;-73
2022/10/29 05:49:03;;;;;;;5.03;2.88;;;18.40;88.20;;;;;;5034078;28;20364;-74
2022/10/29 05:51:29;;;;;;;5.25;2.42;;;18.40;88.20;;;;;;5041356;28;20040;-73
2022/10/29 05:53:54;;;;;;;7.60;2.75;;;18.40;88.30;;;;;;5032362;28;20034;-73
2022/10/29 05:56:20;;;;;;;6.78;2.72;;;18.40;88.20;;;;;;5034554;28;20488;-73
2022/10/29 05:58:49;;;;;;;4.80;2.47;;;18.40;88.30;;;;;;5018503;28;20034;-73
2022/10/29 06:01:14;;;;;;;7.40;3.25;;;18.40;88.30;;;;;;5034723;28;20053;-73
2022/10/29 06:03:40;;;;;;;4.38;2.50;;;18.40;88.20;;;;;;5034651;28;20072;-73
2022/10/29 06:06:06;;;;;;;4.05;2.38;;;18.40;88.20;;;;;;5036147;28;20034;-73
2022/10/29 06:08:31;;;;;;;6.35;2.83;;;18.40;88.20;;;;;;5036486;28;20021;-73
2022/10/29 06:11:00;;;;;;;3.25;2.10;;;18.40;88.20;;;;;;5034896;28;20060;-73
2022/10/29 06:13:26;;;;;;;6.85;2.80;;;18.40;88.30;;;;;;5034619;28;20033;-73
2022/10/29 06:15:55;;;;;;;6.00;3.05;;;18.40;88.20;;;;;;5017884;28;20033;-73
2022/10/29 06:18:21;;;;;;;5.55;3.30;;;18.50;88.30;;;;;;5034568;28;20018;-73
2022/10/29 06:20:47;;;;;;;4.18;2.70;;;18.40;88.30;;;;;;5036114;28;20033;-74
2022/10/29 06:23:12;;;;;;;4.65;2.53;;;18.40;88.30;;;;;;5055690;28;20063;-74
2022/10/29 06:25:38;;;;;;;6.25;2.67;;;18.40;88.30;;;;;;5034324;28;20052;-73
2022/10/29 06:28:05;;;;;;;6.95;2.88;;;18.40;88.20;;;;;;5035488;28;20515;-73
2022/10/29 06:30:32;;;;;;;4.20;2.50;;;18.40;88.20;;;;;;5034543;28;20029;-73
2022/10/29 06:32:58;;;;;;;7.15;2.35;;;18.50;88.20;;;;;;5018006;28;20032;-74
2022/10/29 06:35:23;;;;;;;9.40;2.40;;;18.40;88.20;;;;;;5018048;28;20036;-74
2022/10/29 06:37:49;;;;;;;4.05;2.08;;;18.50;88.30;;;;;;5034198;28;20407;-73
2022/10/29 06:40:15;;;;;;;5.72;2.65;;;18.50;88.20;;;;;;5034176;28;20472;-73
2022/10/29 06:42:40;;;;;;;3.97;2.50;;;18.40;88.20;;;;;;5033994;28;20046;-74
2022/10/29 06:45:06;;;;;;;5.30;2.47;;;18.40;88.10;;;;;;5034215;28;20048;-73
2022/10/29 06:47:43;;;;;;;2.88;2.08;;;18.50;88.20;;;;;;5017666;28;20037;-73
2022/10/29 06:50:10;;;;;;;3.85;2.45;;;18.50;88.20;;;;;;5018388;28;20068;-74
2022/10/29 06:52:36;;;;;;;6.47;2.63;;;18.50;88.20;;;;;;5017647;28;20022;-74
2022/10/29 06:55:02;;;;;;;7.07;2.55;;;18.50;88.20;;;;;;5033669;28;20042;-73
2022/10/29 06:57:28;;;;;;;5.90;2.40;;;18.50;88.10;;;;;;5033467;28;20116;-73
2022/10/29 06:59:54;;;;;;;3.85;2.17;;;18.50;88.20;;;;;;5035150;28;20109;-73
2022/10/29 07:02:20;;;;;;;4.68;2.30;;;18.50;88.20;;;;;;5035143;28;20100;-73
2022/10/29 07:04:45;;;;;;;3.25;2.30;;;18.40;88.10;;;;;;5033756;28;20079;-73
2022/10/29 07:07:11;;;;;;;3.60;2.20;;;18.40;88.10;;;;;;5033537;28;20031;-73
2022/10/29 07:09:37;;;;;;;3.97;2.47;;;18.50;88.20;;;;;;5033664;28;20109;-73
2022/10/29 07:12:02;;;;;;;7.28;2.15;;;18.50;88.10;;;;;;5034604;28;20434;-73
2022/10/29 07:14:28;;;;;;;5.55;2.20;;;18.40;88.10;;;;;;5052538;28;20044;-73
2022/10/29 07:16:54;;;;;;;4.18;2.13;;;18.50;88.20;;;;;;5036660;28;20025;-73
2022/10/29 07:19:19;;;;;;;4.30;2.05;;;18.50;88.10;;;;;;5053303;28;20067;-73
2022/10/29 07:21:45;;;;;;;4.47;2.22;;;18.50;88.20;;;;;;5052287;28;20032;-73
2022/10/29 07:24:10;;;;;;;4.95;2.50;;;18.40;88.20;;;;;;5053595;28;20379;-73
2022/10/29 07:26:36;;;;;;;4.63;2.13;;;18.50;88.20;;;;;;5034049;28;20067;-73
2022/10/29 07:29:02;;;;;;;3.47;2.38;;;18.50;88.20;;;;;;5016183;28;20065;-73
2022/10/29 07:31:28;;;;;;;5.40;2.42;;;18.50;88.20;;;;;;5034159;28;20483;-73
2022/10/29 07:33:55;;;;;;;3.63;2.47;;;18.50;88.20;;;;;;5033118;28;20053;-73
2022/10/29 07:36:21;;;;;;;5.07;2.78;;;18.50;88.30;;;;;;5034238;28;20021;-73
2022/10/29 07:38:47;;;;;;;2.97;2.00;;;18.50;88.20;;;;;;5000387;28;20029;-73
2022/10/29 07:41:12;;;;;;;3.15;2.40;;;18.50;88.20;;;;;;5032901;28;20026;-73
2022/10/29 07:43:38;;;;;;;4.88;2.20;;;18.40;88.20;;;;;;5033194;28;20396;-73
2022/10/29 07:46:04;;;;;;;5.47;2.10;;;18.50;88.20;;;;;;5034083;28;20036;-73
2022/10/29 07:48:29;;;;;;;4.90;2.10;;;18.40;88.20;;;;;;5032973;28;20045;-73
2022/10/29 07:50:57;;;;;;;4.85;2.10;;;18.50;88.20;;;;;;5032899;28;20029;-73
2022/10/29 07:53:23;;;;;;;3.78;2.10;;;18.40;88.20;;;;;;5034116;28;20037;-73
2022/10/29 07:55:53;;;;;;;9.05;2.75;;;18.50;88.20;;;;;;5015832;28;20052;-74
2022/10/29 07:58:18;;;;;;;4.30;2.47;;;18.40;88.20;;;;;;5032542;28;20030;-73
2022/10/29 08:00:44;;;;;;;4.18;2.03;;;18.50;88.20;;;;;;5032772;28;20021;-73
2022/10/29 08:03:11;;;;;;;3.70;2.10;;;18.50;88.20;;;;;;5032633;28;20033;-73
2022/10/29 08:05:37;;;;;;;6.22;2.50;;;18.40;88.20;;;;;;5038443;28;20037;-73
2022/10/29 08:08:04;;;;;;;3.15;1.92;;;18.50;88.20;;;;;;5025243;28;20060;-73
2022/10/29 08:10:30;;;;;;;4.32;2.20;;;18.50;88.20;;;;;;5052113;28;20025;-73
2022/10/29 08:12:58;;;;;;;4.50;2.28;;;18.50;88.20;;;;;;5052368;28;20120;-73
2022/10/29 08:15:24;;;;;;;6.93;2.22;;;18.40;88.20;;;;;;5035991;28;20506;-74
2022/10/29 08:17:49;;;;;;;5.97;1.90;;;18.50;88.30;;;;;;5035057;28;20025;-74
2022/10/29 08:20:15;;;;;;;4.30;2.35;;;18.50;88.20;;;;;;5052115;28;20092;-74
2022/10/29 08:22:41;;;;;;;3.83;2.00;;;18.50;88.20;;;;;;5052157;28;20051;-73
2022/10/29 08:25:07;;;;;;;4.05;2.30;;;18.40;88.20;;;;;;5045974;28;20056;-73
2022/10/29 08:27:32;;;;;;;3.50;2.13;;;18.50;88.20;;;;;;5035815;28;20108;-73
2022/10/29 08:29:58;;;;;;;3.65;1.77;;;18.50;88.20;;;;;;5042014;28;20051;-73
2022/10/29 08:32:24;;;;;;;5.10;2.13;;;18.50;88.20;;;;;;5034568;28;20040;-73
2022/10/29 08:34:49;;;;;;;5.72;2.50;;;18.50;88.30;;;;;;5042170;28;20048;-73
2022/10/29 08:37:15;;;;;;;6.60;2.42;;;18.50;88.30;;;;;;5033268;28;20578;-73
2022/10/29 08:39:41;;;;;;;3.47;2.40;;;18.50;88.20;;;;;;5047732;28;20467;-73
2022/10/29 08:42:25;;;;;;;2.83;1.92;;;18.50;88.40;;;;;;5051102;28;20508;-73
2022/10/29 08:45:21;;;;;;;3.03;1.80;;;18.50;88.30;;;;;;5052498;28;20050;-74
2022/10/29 08:48:09;;;;;;;3.90;2.20;;;18.50;88.30;;;;;;5052534;28;20549;-74
2022/10/29 08:50:41;;;;;;;4.97;2.10;;;18.50;88.40;;;;;;5051228;28;20363;-74
2022/10/29 08:53:45;;;;;;;4.68;2.08;;;18.50;88.30;;;;;;5034673;28;20398;-74
2022/10/29 08:56:24;;;;;;;5.03;1.95;;;18.50;88.30;;;;;;5047389;28;20041;-74
2022/10/29 08:58:55;;;;;;;4.60;2.35;;;18.50;88.30;;;;;;5035684;28;20056;-73
2022/10/29 09:01:21;;;;;;;5.28;2.30;;;18.50;88.40;;;;;;5051100;28;20406;-74
2022/10/29 09:03:47;;;;;;;3.45;2.05;;;18.50;88.40;;;;;;5034466;28;20033;-74
2022/10/29 09:06:33;;;;;;;2.90;2.05;;;18.50;88.30;;;;;;5050898;28;20028;-74
2022/10/29 09:09:12;;;;;;;3.28;2.17;;;18.50;88.40;;;;;;5051993;28;20037;-74
2022/10/29 09:11:57;;;;;;;4.25;2.00;;;18.50;88.40;;;;;;5052103;28;20063;-73
2022/10/29 09:14:57;;;;;;;2.72;1.70;;;18.50;88.40;;;;;;5051006;28;20024;-74
2022/10/29 09:17:51;;;;;;;4.82;2.25;;;18.50;88.40;;;;;;5045466;28;20059;-73
2022/10/29 09:20:32;;;;;;;3.13;1.90;;;18.50;86.40;;;;;;5046076;28;20036;-73
2022/10/29 09:23:22;;;;;;;3.55;1.90;;;18.50;86.00;;;;;;5041230;28;20040;-73
2022/10/29 09:25:50;;;;;;;2.88;1.85;;;18.40;85.90;;;;;;5058016;28;20077;-73
2022/10/29 09:28:20;;;;;;;3.78;1.90;;;18.40;85.70;;;;;;5034468;28;20057;-73
2022/10/29 09:31:05;;;;;;;5.78;2.20;;;18.40;85.90;;;;;;5036686;28;20062;-73
2022/10/29 09:33:31;;;;;;;4.50;2.10;;;18.40;85.60;;;;;;5037859;28;20028;-73
2022/10/29 09:35:57;;;;;;;4.75;2.35;;;18.40;85.60;;;;;;5046579;28;20033;-72
2022/10/29 09:38:30;;;;;;;2.40;1.98;;;18.40;85.60;;;;;;5056152;28;20043;-73
2022/10/29 09:40:57;;;;;;;5.43;2.17;;;18.40;85.60;;;;;;5055526;28;20028;-72
2022/10/29 09:43:44;;;;;;;16.02;2.97;;;18.40;85.90;;;;;;5036073;28;20028;-72
2022/10/29 09:46:46;;;;;;;5.75;2.30;;;18.40;85.90;;;;;;5053758;28;20068;-72
2022/10/29 09:49:21;;;;;;;7.95;2.72;;;18.40;85.90;;;;;;5037096;28;20043;-72
2022/10/29 09:52:15;;;;;;;16.45;3.78;;;18.40;85.90;;;;;;5037276;28;20051;-72
2022/10/29 09:54:40;;;;;;;18.42;3.88;;;18.40;86.00;;;;;;5035362;28;20504;-72
2022/10/29 09:57:06;;;;;;;12.57;3.22;;;18.40;85.90;;;;;;5033827;28;20068;-72
2022/10/29 09:59:39;;;;;;;16.10;4.07;;;18.30;86.00;;;;;;5017897;28;20026;-72
2022/10/29 10:02:27;;;;;;;15.70;4.03;;;18.30;86.00;;;;;;5034698;28;20029;-72
2022/10/29 10:04:55;;;;;;;16.45;4.20;;;18.30;86.00;;;;;;5035612;28;20483;-72
2022/10/29 10:07:20;;;;;;;16.50;3.28;;;18.30;86.10;;;;;;5032690;28;20450;-72
2022/10/29 10:09:53;;;;;;;13.43;3.78;;;18.30;86.10;;;;;;5034377;28;20030;-72
2022/10/29 10:12:19;;;;;;;;;;;18.30;86.10;;;;;;5034625;28;20029;-72
2022/10/29 10:14:46;;;;;;;22.13;5.20;;;18.40;86.20;;;;;;5051008;28;19959;-72
2022/10/29 10:17:12;;;;;;;12.88;3.78;;;18.30;86.10;;;;;;5034047;28;20104;-72
2022/10/29 10:19:42;;;;;;;18.30;3.85;;;18.30;86.10;;;;;;5034063;28;20608;-72
2022/10/29 10:22:16;;;;;;;13.85;3.75;;;18.30;86.10;;;;;;5046548;28;20582;-72
2022/10/29 10:24:42;;;;;;;12.52;3.80;;;18.30;86.10;;;;;;5054140;28;20036;-72
2022/10/29 10:27:17;;;;;;;15.07;4.65;;;18.30;86.10;;;;;;5037488;28;20104;-72
2022/10/29 10:29:43;;;;;;;17.73;4.32;;;18.30;86.10;;;;;;5055057;28;20039;-72
2022/10/29 10:32:12;;;;;;;19.83;4.45;;;18.30;86.10;;;;;;5037265;28;20029;-72
2022/10/29 10:34:38;;;;;;;11.52;4.32;;;18.30;86.10;;;;;;5037386;28;20032;-72
2022/10/29 10:37:09;;;;;;;18.13;3.95;;;18.30;86.10;;;;;;5053868;28;20025;-72
2022/10/29 10:39:54;;;;;;;23.83;5.10;;;18.40;86.10;;;;;;5054735;28;20031;-72
2022/10/29 10:42:19;;;;;;;11.57;4.43;;;18.30;86.10;;;;;;5038296;28;20459;-72
2022/10/29 10:44:51;;;;;;;14.68;4.15;;;18.30;86.10;;;;;;5054777;28;20028;-72
2022/10/29 10:47:16;;;;;;;10.38;3.72;;;18.30;86.10;;;;;;5053564;28;20072;-72
2022/10/29 10:49:42;;;;;;;17.92;4.32;;;18.30;86.10;;;;;;5054420;28;20065;-72
2022/10/29 10:52:22;;;;;;;17.02;4.35;;;18.30;86.10;;;;;;5054707;28;20021;-72
2022/10/29 10:55:24;;;;;;;21.00;4.35;;;18.30;86.00;;;;;;5053354;28;20105;-72
2022/10/29 10:58:10;;;;;;;20.75;4.65;;;18.30;86.10;;;;;;5054390;28;20068;-72
2022/10/29 11:01:00;;;;;;;15.63;4.57;;;18.30;86.00;;;;;;5053579;28;20033;-72
2022/10/29 11:03:43;;;;;;;20.33;5.05;;;18.30;86.10;;;;;;5053528;28;20029;-72
2022/10/29 11:06:35;;;;;;;17.13;4.15;;;18.30;86.00;;;;;;5053237;28;20040;-72
2022/10/29 11:09:11;;;;;;;18.00;4.32;;;18.30;86.00;;;;;;5052476;28;20025;-72
2022/10/29 11:11:38;;;;;;;29.95;4.35;;;18.30;86.00;;;;;;5053140;28;20040;-72
2022/10/29 11:14:35;;;;;;;21.13;4.65;;;18.30;86.00;;;;;;5053009;28;20021;-72
2022/10/29 11:17:01;;;;;;;20.45;4.40;;;18.30;86.00;;;;;;5052780;28;20044;-72
2022/10/29 11:19:40;;;;;;;16.77;4.50;;;18.30;86.00;;;;;;5036017;28;20025;-72
2022/10/29 11:22:06;;;;;;;18.20;4.55;;;18.30;86.00;;;;;;5052948;28;20025;-72
2022/10/29 11:24:38;;;;;;;14.95;4.88;;;18.30;85.90;;;;;;5053893;28;20017;-72
2022/10/29 11:27:31;;;;;;;17.10;4.50;;;18.30;86.40;;;;;;5053024;28;20021;-72
2022/10/29 11:30:13;;;;;;;15.88;4.35;;;18.30;86.00;;;;;;5035029;28;20040;-72
2022/10/29 11:33:00;;;;;;;18.45;4.68;;;18.30;85.90;;;;;;5034903;28;20040;-72
2022/10/29 11:35:45;;;;;;;11.57;3.80;;;18.30;85.90;;;;;;5051379;28;20044;-72
2022/10/29 11:38:16;;;;;;;16.30;4.88;;;18.30;85.90;;;;;;5035004;28;20447;-72
2022/10/29 11:40:54;;;;;;;16.17;4.82;;;18.30;86.00;;;;;;5051631;28;20033;-72
2022/10/29 11:43:19;;;;;;;20.85;4.60;;;18.30;85.80;;;;;;5051678;28;20029;-72
2022/10/29 11:46:01;;;;;;;13.55;3.88;;;18.30;85.90;;;;;;5034887;28;20032;-72
2022/10/29 11:48:45;;;;;;;14.40;3.57;;;18.30;85.80;;;;;;5035925;28;20036;-72
2022/10/29 11:51:32;;;;;;;12.55;3.90;;;18.20;85.90;;;;;;5051302;28;20064;-72
2022/10/29 11:54:25;;;;;;;15.32;4.80;;;18.20;85.80;;;;;;5051561;28;20082;-72
2022/10/29 11:56:52;;;;;;;;;;;18.20;85.70;;;;;;5051691;28;20053;-72
2022/10/29 11:59:39;;;;;;;12.07;3.90;;;18.30;85.80;;;;;;5034254;28;19912;-72
2022/10/29 12:02:16;;;;;;;11.23;4.07;;;18.20;85.80;;;;;;5051122;28;20029;-72
2022/10/29 12:05:23;;;;;;;14.57;3.90;;;18.30;85.80;;;;;;5051198;28;20021;-72
2022/10/29 12:07:57;;;;;;;15.88;4.18;;;18.20;85.70;;;;;;5034734;28;20040;-72
2022/10/29 12:10:38;;;;;;;20.73;4.60;;;18.20;85.70;;;;;;5053177;28;20029;-72
2022/10/29 12:13:11;;;;;;;11.57;4.43;;;18.20;85.70;;;;;;5051997;28;20471;-72
2022/10/29 12:15:54;;;;;;;14.90;4.43;;;18.20;85.70;;;;;;5052033;28;20739;-72
2022/10/29 12:18:45;;;;;;;15.32;4.70;;;18.30;85.80;;;;;;5051760;28;20031;-72
2022/10/29 12:21:20;;;;;;;14.50;4.20;;;18.20;85.70;;;;;;5052885;28;20074;-72
2022/10/29 12:24:19;;;;;;;16.52;4.45;;;18.30;85.80;;;;;;5052924;28;20116;-72
2022/10/29 12:26:57;;;;;;;15.50;4.32;;;18.30;85.70;;;;;;5052876;28;20107;-72
2022/10/29 12:29:48;;;;;;;16.55;4.15;;;18.30;85.70;;;;;;5036722;28;20051;-72
2022/10/29 12:32:20;;;;;;;11.57;3.83;;;18.30;85.70;;;;;;5035490;28;20024;-72
2022/10/29 12:35:01;;;;;;;12.18;3.72;;;18.20;85.70;;;;;;5051696;28;20490;-72
2022/10/29 12:37:36;;;;;;;12.90;3.97;;;18.30;85.80;;;;;;5051546;28;20446;-72
2022/10/29 12:40:25;;;;;;;17.63;4.13;;;18.20;85.70;;;;;;5052732;28;20075;-72
2022/10/29 12:42:51;;;;;;;11.77;3.65;;;18.20;85.70;;;;;;5048708;28;20060;-72
2022/10/29 12:45:57;;;;;;;12.25;4.53;;;18.20;85.70;;;;;;5034799;28;20029;-72
2022/10/29 12:48:44;;;;;;;11.32;3.58;;;18.20;85.60;;;;;;5052327;28;20033;-72
2022/10/29 12:51:39;;;;;;;10.70;4.13;;;18.20;85.70;;;;;;5051607;28;20017;-72
2022/10/29 12:54:13;;;;;;;11.77;3.83;;;18.20;85.60;;;;;;5051420;28;20039;-72
2022/10/29 12:56:39;;;;;;;15.40;4.00;;;18.20;85.60;;;;;;5052160;28;20041;-72
2022/10/29 12:59:23;;;;;;;16.23;4.10;;;18.20;85.60;;;;;;5034827;28;20368;-72
2022/10/29 13:01:49;;;;;;;15.93;4.20;;;18.20;85.60;;;;;;5052296;28;20024;-72
2022/10/29 13:04:22;;;;;;;9.18;3.20;;;18.20;85.60;;;;;;5034338;28;20066;-72
2022/10/29 13:07:11;;;;;;;12.63;3.45;;;18.20;85.60;;;;;;5051149;28;20052;-72